sensor_id;sensor_type;location;lat;lon;timestamp;P1;durP1;ratioP1;P2;durP2;ratioP2
37049;SDS011;22958;51.232;6.826;2023-02-15T00:01:29;71.65;;;28.08;;
37049;SDS011;22958;51.232;6.826;2023-02-15T00:03:55;66.57;;;27.57;;
37049;SDS011;22958;51.232;6.826;2023-02-15T00:06:21;68.13;;;28.43;;
37049;SDS011;22958;51.232;6.826;2023-02-15T00:08:47;73.10;;;28.52;;
37049;SDS011;22958;51.232;6.826;2023-02-15T00:11:13;69.17;;;28.67;;
37049;SDS011;22958;51.232;6.826;2023-02-15T00:13:40;72.15;;;27.77;;
37049;SDS011;22958;51.232;6.826;2023-02-15T00:16:06;73.17;;;28.93;;
37049;SDS011;22958;51.232;6.826;2023-02-15T00:18:34;67.45;;;28.55;;
37049;SDS011;22958;51.232;6.826;2023-02-15T00:21:04;68.83;;;29.40;;
37049;SDS011;22958;51.232;6.826;2023-02-15T00:23:31;67.60;;;28.20;;
37049;SDS011;22958;51.232;6.826;2023-02-15T00:26:06;69.47;;;27.73;;
37049;SDS011;22958;51.232;6.826;2023-02-15T00:28:33;77.23;;;28.37;;
37049;SDS011;22958;51.232;6.826;2023-02-15T00:31:17;68.80;;;30.73;;
37049;SDS011;22958;51.232;6.826;2023-02-15T00:33:43;73.05;;;28.80;;
37049;SDS011;22958;51.232;6.826;2023-02-15T00:36:09;75.50;;;31.03;;
37049;SDS011;22958;51.232;6.826;2023-02-15T00:38:36;65.97;;;27.92;;
37049;SDS011;22958;51.232;6.826;2023-02-15T00:41:03;67.00;;;29.03;;
37049;SDS011;22958;51.232;6.826;2023-02-15T00:43:31;68.13;;;28.27;;
37049;SDS011;22958;51.232;6.826;2023-02-15T00:48:24;69.13;;;27.70;;
37049;SDS011;22958;51.232;6.826;2023-02-15T00:50:51;65.97;;;28.63;;
37049;SDS011;22958;51.232;6.826;2023-02-15T00:53:20;65.10;;;28.40;;
37049;SDS011;22958;51.232;6.826;2023-02-15T00:55:47;68.15;;;28.95;;
37049;SDS011;22958;51.232;6.826;2023-02-15T00:58:12;73.60;;;28.07;;
37049;SDS011;22958;51.232;6.826;2023-02-15T01:00:39;69.82;;;29.58;;
37049;SDS011;22958;51.232;6.826;2023-02-15T01:03:07;77.55;;;28.67;;
37049;SDS011;22958;51.232;6.826;2023-02-15T01:05:32;72.30;;;29.67;;
37049;SDS011;22958;51.232;6.826;2023-02-15T01:07:58;70.03;;;29.10;;
37049;SDS011;22958;51.232;6.826;2023-02-15T01:10:25;67.07;;;27.52;;
37049;SDS011;22958;51.232;6.826;2023-02-15T01:12:51;71.05;;;30.40;;
37049;SDS011;22958;51.232;6.826;2023-02-15T01:15:17;65.20;;;26.75;;
37049;SDS011;22958;51.232;6.826;2023-02-15T01:17:43;66.17;;;27.67;;
37049;SDS011;22958;51.232;6.826;2023-02-15T01:20:14;70.55;;;27.77;;
37049;SDS011;22958;51.232;6.826;2023-02-15T01:22:40;68.37;;;28.57;;
37049;SDS011;22958;51.232;6.826;2023-02-15T01:25:05;64.37;;;28.90;;
37049;SDS011;22958;51.232;6.826;2023-02-15T01:27:31;66.70;;;28.37;;
37049;SDS011;22958;51.232;6.826;2023-02-15T01:29:57;66.97;;;28.43;;
37049;SDS011;22958;51.232;6.826;2023-02-15T01:32:22;82.07;;;29.57;;
37049;SDS011;22958;51.232;6.826;2023-02-15T01:34:48;77.90;;;30.30;;
37049;SDS011;22958;51.232;6.826;2023-02-15T01:37:13;74.57;;;30.67;;
37049;SDS011;22958;51.232;6.826;2023-02-15T01:39:39;71.17;;;30.17;;
37049;SDS011;22958;51.232;6.826;2023-02-15T01:42:04;72.27;;;29.77;;
37049;SDS011;22958;51.232;6.826;2023-02-15T01:47:22;71.82;;;30.77;;
37049;SDS011;22958;51.232;6.826;2023-02-15T01:50:02;72.78;;;29.35;;
37049;SDS011;22958;51.232;6.826;2023-02-15T01:52:40;78.97;;;30.48;;
37049;SDS011;22958;51.232;6.826;2023-02-15T01:55:21;76.70;;;31.80;;
37049;SDS011;22958;51.232;6.826;2023-02-15T01:57:48;76.63;;;31.13;;
37049;SDS011;22958;51.232;6.826;2023-02-15T02:00:14;74.68;;;29.55;;
37049;SDS011;22958;51.232;6.826;2023-02-15T02:02:42;78.50;;;31.85;;
37049;SDS011;22958;51.232;6.826;2023-02-15T02:05:09;85.10;;;33.33;;
37049;SDS011;22958;51.232;6.826;2023-02-15T02:07:38;81.37;;;31.97;;
37049;SDS011;22958;51.232;6.826;2023-02-15T02:10:09;78.55;;;30.77;;
37049;SDS011;22958;51.232;6.826;2023-02-15T02:12:37;72.05;;;30.75;;
37049;SDS011;22958;51.232;6.826;2023-02-15T02:15:05;71.10;;;30.70;;
37049;SDS011;22958;51.232;6.826;2023-02-15T02:26:18;66.35;;;29.48;;
37049;SDS011;22958;51.232;6.826;2023-02-15T02:34:35;71.70;;;29.63;;
37049;SDS011;22958;51.232;6.826;2023-02-15T02:37:23;79.93;;;31.30;;
37049;SDS011;22958;51.232;6.826;2023-02-15T02:45:32;78.38;;;30.05;;
37049;SDS011;22958;51.232;6.826;2023-02-15T02:48:08;79.72;;;32.53;;
37049;SDS011;22958;51.232;6.826;2023-02-15T02:50:39;77.30;;;30.52;;
37049;SDS011;22958;51.232;6.826;2023-02-15T02:58:00;76.38;;;30.65;;
37049;SDS011;22958;51.232;6.826;2023-02-15T03:00:32;79.50;;;32.30;;
37049;SDS011;22958;51.232;6.826;2023-02-15T03:03:20;68.72;;;29.42;;
37049;SDS011;22958;51.232;6.826;2023-02-15T03:05:47;77.85;;;32.55;;
37049;SDS011;22958;51.232;6.826;2023-02-15T03:08:18;73.65;;;29.92;;
37049;SDS011;22958;51.232;6.826;2023-02-15T03:10:48;78.85;;;31.70;;
37049;SDS011;22958;51.232;6.826;2023-02-15T03:13:18;72.47;;;30.42;;
37049;SDS011;22958;51.232;6.826;2023-02-15T03:15:43;73.93;;;30.93;;
37049;SDS011;22958;51.232;6.826;2023-02-15T03:18:30;83.07;;;31.75;;
37049;SDS011;22958;51.232;6.826;2023-02-15T03:21:07;79.55;;;32.10;;
37049;SDS011;22958;51.232;6.826;2023-02-15T03:23:34;77.18;;;31.85;;
37049;SDS011;22958;51.232;6.826;2023-02-15T03:26:03;74.50;;;31.23;;
37049;SDS011;22958;51.232;6.826;2023-02-15T03:28:33;76.10;;;32.08;;
37049;SDS011;22958;51.232;6.826;2023-02-15T03:31:04;92.40;;;33.30;;
37049;SDS011;22958;51.232;6.826;2023-02-15T03:33:32;72.20;;;31.17;;
37049;SDS011;22958;51.232;6.826;2023-02-15T03:38:59;78.03;;;31.35;;
37049;SDS011;22958;51.232;6.826;2023-02-15T03:41:42;77.43;;;31.85;;
37049;SDS011;22958;51.232;6.826;2023-02-15T03:44:27;84.90;;;32.42;;
37049;SDS011;22958;51.232;6.826;2023-02-15T03:46:56;88.45;;;31.42;;
37049;SDS011;22958;51.232;6.826;2023-02-15T03:52:18;81.55;;;30.48;;
37049;SDS011;22958;51.232;6.826;2023-02-15T03:54:46;81.57;;;31.65;;
37049;SDS011;22958;51.232;6.826;2023-02-15T03:57:18;82.35;;;31.70;;
37049;SDS011;22958;51.232;6.826;2023-02-15T04:05:31;79.13;;;31.75;;
37049;SDS011;22958;51.232;6.826;2023-02-15T04:07:57;82.37;;;32.40;;
37049;SDS011;22958;51.232;6.826;2023-02-15T04:10:22;80.20;;;32.93;;
37049;SDS011;22958;51.232;6.826;2023-02-15T04:13:06;83.82;;;33.13;;
37049;SDS011;22958;51.232;6.826;2023-02-15T04:15:32;76.40;;;30.67;;
37049;SDS011;22958;51.232;6.826;2023-02-15T04:18:16;82.82;;;31.25;;
37049;SDS011;22958;51.232;6.826;2023-02-15T04:20:45;79.43;;;30.63;;
37049;SDS011;22958;51.232;6.826;2023-02-15T04:23:29;86.45;;;34.08;;
37049;SDS011;22958;51.232;6.826;2023-02-15T04:26:14;73.18;;;30.13;;
37049;SDS011;22958;51.232;6.826;2023-02-15T04:28:39;86.60;;;32.80;;
37049;SDS011;22958;51.232;6.826;2023-02-15T04:31:05;78.67;;;31.77;;
37049;SDS011;22958;51.232;6.826;2023-02-15T04:33:30;89.43;;;32.67;;
37049;SDS011;22958;51.232;6.826;2023-02-15T04:35:56;76.37;;;30.73;;
37049;SDS011;22958;51.232;6.826;2023-02-15T04:38:22;89.40;;;34.80;;
37049;SDS011;22958;51.232;6.826;2023-02-15T04:40:51;81.60;;;33.57;;
37049;SDS011;22958;51.232;6.826;2023-02-15T04:43:17;86.05;;;33.45;;
37049;SDS011;22958;51.232;6.826;2023-02-15T04:45:47;88.25;;;33.92;;
37049;SDS011;22958;51.232;6.826;2023-02-15T04:48:16;83.97;;;32.80;;
37049;SDS011;22958;51.232;6.826;2023-02-15T04:50:42;94.63;;;35.38;;
37049;SDS011;22958;51.232;6.826;2023-02-15T04:53:08;91.15;;;33.50;;
37049;SDS011;22958;51.232;6.826;2023-02-15T04:55:34;85.43;;;32.30;;
37049;SDS011;22958;51.232;6.826;2023-02-15T04:58:00;80.53;;;32.23;;
37049;SDS011;22958;51.232;6.826;2023-02-15T05:00:25;86.10;;;33.67;;
37049;SDS011;22958;51.232;6.826;2023-02-15T05:05:17;79.68;;;30.58;;
37049;SDS011;22958;51.232;6.826;2023-02-15T05:07:43;80.93;;;31.57;;
37049;SDS011;22958;51.232;6.826;2023-02-15T05:10:08;85.63;;;32.23;;
37049;SDS011;22958;51.232;6.826;2023-02-15T05:12:34;86.40;;;34.23;;
37049;SDS011;22958;51.232;6.826;2023-02-15T05:14:59;82.00;;;32.07;;
37049;SDS011;22958;51.232;6.826;2023-02-15T05:17:25;84.20;;;30.93;;
37049;SDS011;22958;51.232;6.826;2023-02-15T05:19:50;81.87;;;33.13;;
37049;SDS011;22958;51.232;6.826;2023-02-15T05:22:16;85.07;;;32.37;;
37049;SDS011;22958;51.232;6.826;2023-02-15T05:24:41;82.60;;;32.20;;
37049;SDS011;22958;51.232;6.826;2023-02-15T05:27:25;84.25;;;33.13;;
37049;SDS011;22958;51.232;6.826;2023-02-15T05:30:10;75.82;;;30.65;;
37049;SDS011;22958;51.232;6.826;2023-02-15T05:32:37;85.20;;;32.65;;
37049;SDS011;22958;51.232;6.826;2023-02-15T05:35:03;84.03;;;33.88;;
37049;SDS011;22958;51.232;6.826;2023-02-15T05:37:30;88.07;;;33.78;;
37049;SDS011;22958;51.232;6.826;2023-02-15T05:39:55;83.23;;;32.43;;
37049;SDS011;22958;51.232;6.826;2023-02-15T05:42:21;89.50;;;33.57;;
37049;SDS011;22958;51.232;6.826;2023-02-15T05:44:46;97.47;;;32.77;;
37049;SDS011;22958;51.232;6.826;2023-02-15T05:47:12;89.17;;;33.87;;
37049;SDS011;22958;51.232;6.826;2023-02-15T05:49:37;83.87;;;33.37;;
37049;SDS011;22958;51.232;6.826;2023-02-15T05:52:03;80.57;;;31.07;;
37049;SDS011;22958;51.232;6.826;2023-02-15T05:54:29;86.80;;;33.80;;
37049;SDS011;22958;51.232;6.826;2023-02-15T05:56:54;91.37;;;32.87;;
37049;SDS011;22958;51.232;6.826;2023-02-15T05:59:20;89.23;;;34.80;;
37049;SDS011;22958;51.232;6.826;2023-02-15T06:01:45;84.07;;;33.10;;
37049;SDS011;22958;51.232;6.826;2023-02-15T06:04:11;87.30;;;32.83;;
37049;SDS011;22958;51.232;6.826;2023-02-15T06:06:37;85.82;;;32.10;;
37049;SDS011;22958;51.232;6.826;2023-02-15T06:09:03;83.77;;;33.07;;
37049;SDS011;22958;51.232;6.826;2023-02-15T06:11:28;95.03;;;35.00;;
37049;SDS011;22958;51.232;6.826;2023-02-15T06:13:54;93.47;;;32.17;;
37049;SDS011;22958;51.232;6.826;2023-02-15T06:16:19;90.97;;;35.13;;
37049;SDS011;22958;51.232;6.826;2023-02-15T06:18:45;87.27;;;33.03;;
37049;SDS011;22958;51.232;6.826;2023-02-15T06:21:11;84.07;;;33.47;;
37049;SDS011;22958;51.232;6.826;2023-02-15T06:23:37;98.32;;;36.25;;
37049;SDS011;22958;51.232;6.826;2023-02-15T06:26:02;93.20;;;34.90;;
37049;SDS011;22958;51.232;6.826;2023-02-15T06:28:28;85.60;;;34.37;;
37049;SDS011;22958;51.232;6.826;2023-02-15T06:30:54;83.70;;;34.40;;
37049;SDS011;22958;51.232;6.826;2023-02-15T06:33:19;89.00;;;32.57;;
37049;SDS011;22958;51.232;6.826;2023-02-15T06:35:45;98.83;;;36.00;;
37049;SDS011;22958;51.232;6.826;2023-02-15T06:38:11;87.57;;;33.60;;
37049;SDS011;22958;51.232;6.826;2023-02-15T06:40:36;96.70;;;35.10;;
37049;SDS011;22958;51.232;6.826;2023-02-15T06:43:02;95.13;;;34.93;;
37049;SDS011;22958;51.232;6.826;2023-02-15T06:45:27;90.17;;;33.80;;
37049;SDS011;22958;51.232;6.826;2023-02-15T06:47:53;91.97;;;35.67;;
37049;SDS011;22958;51.232;6.826;2023-02-15T06:50:18;88.73;;;34.50;;
37049;SDS011;22958;51.232;6.826;2023-02-15T06:52:44;88.60;;;33.50;;
37049;SDS011;22958;51.232;6.826;2023-02-15T06:55:10;90.20;;;34.23;;
37049;SDS011;22958;51.232;6.826;2023-02-15T06:57:35;94.87;;;35.67;;
37049;SDS011;22958;51.232;6.826;2023-02-15T07:00:01;90.27;;;34.53;;
37049;SDS011;22958;51.232;6.826;2023-02-15T07:02:29;84.60;;;33.33;;
37049;SDS011;22958;51.232;6.826;2023-02-15T07:04:56;98.93;;;34.33;;
37049;SDS011;22958;51.232;6.826;2023-02-15T07:07:21;92.20;;;34.30;;
37049;SDS011;22958;51.232;6.826;2023-02-15T07:09:47;89.67;;;33.27;;
37049;SDS011;22958;51.232;6.826;2023-02-15T07:12:12;85.63;;;32.87;;
37049;SDS011;22958;51.232;6.826;2023-02-15T07:14:56;92.68;;;33.97;;
37049;SDS011;22958;51.232;6.826;2023-02-15T07:17:23;85.35;;;32.67;;
37049;SDS011;22958;51.232;6.826;2023-02-15T07:19:48;86.17;;;32.43;;
37049;SDS011;22958;51.232;6.826;2023-02-15T07:22:14;88.40;;;33.20;;
37049;SDS011;22958;51.232;6.826;2023-02-15T07:24:39;87.87;;;32.90;;
37049;SDS011;22958;51.232;6.826;2023-02-15T07:27:06;84.60;;;32.30;;
37049;SDS011;22958;51.232;6.826;2023-02-15T07:29:32;80.85;;;30.83;;
37049;SDS011;22958;51.232;6.826;2023-02-15T07:31:58;78.83;;;30.97;;
37049;SDS011;22958;51.232;6.826;2023-02-15T07:34:23;78.20;;;31.10;;
37049;SDS011;22958;51.232;6.826;2023-02-15T07:36:50;74.93;;;30.30;;
37049;SDS011;22958;51.232;6.826;2023-02-15T07:39:16;73.88;;;31.17;;
37049;SDS011;22958;51.232;6.826;2023-02-15T07:41:42;82.23;;;32.67;;
37049;SDS011;22958;51.232;6.826;2023-02-15T07:44:10;68.73;;;29.03;;
37049;SDS011;22958;51.232;6.826;2023-02-15T07:46:37;79.20;;;31.08;;
37049;SDS011;22958;51.232;6.826;2023-02-15T07:49:02;79.83;;;31.03;;
37049;SDS011;22958;51.232;6.826;2023-02-15T07:51:28;78.90;;;31.83;;
37049;SDS011;22958;51.232;6.826;2023-02-15T07:53:54;82.80;;;30.10;;
37049;SDS011;22958;51.232;6.826;2023-02-15T07:56:20;76.07;;;30.13;;
37049;SDS011;22958;51.232;6.826;2023-02-15T07:58:46;74.40;;;30.23;;
37049;SDS011;22958;51.232;6.826;2023-02-15T08:01:27;70.57;;;29.52;;
37049;SDS011;22958;51.232;6.826;2023-02-15T08:03:55;74.80;;;28.58;;
37049;SDS011;22958;51.232;6.826;2023-02-15T08:06:22;68.53;;;28.25;;
37049;SDS011;22958;51.232;6.826;2023-02-15T08:08:49;64.25;;;28.08;;
37049;SDS011;22958;51.232;6.826;2023-02-15T08:11:24;67.33;;;28.93;;
37049;SDS011;22958;51.232;6.826;2023-02-15T08:19:15;60.55;;;26.48;;
37049;SDS011;22958;51.232;6.826;2023-02-15T08:21:43;68.72;;;27.33;;
37049;SDS011;22958;51.232;6.826;2023-02-15T08:24:11;61.08;;;26.05;;
37049;SDS011;22958;51.232;6.826;2023-02-15T08:26:38;60.78;;;26.20;;
37049;SDS011;22958;51.232;6.826;2023-02-15T08:31:31;62.50;;;25.10;;
37049;SDS011;22958;51.232;6.826;2023-02-15T08:33:58;64.45;;;25.33;;
37049;SDS011;22958;51.232;6.826;2023-02-15T08:36:26;58.85;;;23.33;;
37049;SDS011;22958;51.232;6.826;2023-02-15T08:38:53;60.05;;;24.33;;
37049;SDS011;22958;51.232;6.826;2023-02-15T08:43:51;55.10;;;23.27;;
37049;SDS011;22958;51.232;6.826;2023-02-15T08:46:19;56.65;;;24.33;;
37049;SDS011;22958;51.232;6.826;2023-02-15T08:48:45;58.95;;;23.88;;
37049;SDS011;22958;51.232;6.826;2023-02-15T08:51:12;56.67;;;22.77;;
37049;SDS011;22958;51.232;6.826;2023-02-15T08:53:44;47.65;;;21.48;;
37049;SDS011;22958;51.232;6.826;2023-02-15T08:56:13;50.08;;;22.23;;
37049;SDS011;22958;51.232;6.826;2023-02-15T08:58:40;52.22;;;21.77;;
37049;SDS011;22958;51.232;6.826;2023-02-15T09:01:09;46.23;;;20.93;;
37049;SDS011;22958;51.232;6.826;2023-02-15T09:03:36;54.90;;;22.63;;
37049;SDS011;22958;51.232;6.826;2023-02-15T09:06:01;56.83;;;22.20;;
37049;SDS011;22958;51.232;6.826;2023-02-15T09:08:27;50.00;;;21.73;;
37049;SDS011;22958;51.232;6.826;2023-02-15T09:10:54;51.97;;;20.92;;
37049;SDS011;22958;51.232;6.826;2023-02-15T09:13:28;45.72;;;21.52;;
37049;SDS011;22958;51.232;6.826;2023-02-15T09:15:58;50.17;;;21.27;;
37049;SDS011;22958;51.232;6.826;2023-02-15T09:18:25;45.80;;;20.10;;
37049;SDS011;22958;51.232;6.826;2023-02-15T09:20:50;44.40;;;18.50;;
37049;SDS011;22958;51.232;6.826;2023-02-15T09:23:16;45.10;;;19.97;;
37049;SDS011;22958;51.232;6.826;2023-02-15T09:25:41;44.97;;;19.70;;
37049;SDS011;22958;51.232;6.826;2023-02-15T09:28:07;47.33;;;19.37;;
37049;SDS011;22958;51.232;6.826;2023-02-15T09:30:33;49.57;;;19.67;;
37049;SDS011;22958;51.232;6.826;2023-02-15T09:32:59;45.45;;;19.45;;
37049;SDS011;22958;51.232;6.826;2023-02-15T09:35:24;40.57;;;19.07;;
37049;SDS011;22958;51.232;6.826;2023-02-15T09:37:50;47.43;;;19.23;;
37049;SDS011;22958;51.232;6.826;2023-02-15T09:40:16;58.33;;;21.43;;
37049;SDS011;22958;51.232;6.826;2023-02-15T09:42:55;46.53;;;19.92;;
37049;SDS011;22958;51.232;6.826;2023-02-15T09:45:49;38.25;;;17.67;;
37049;SDS011;22958;51.232;6.826;2023-02-15T09:48:34;39.30;;;19.05;;
37049;SDS011;22958;51.232;6.826;2023-02-15T09:51:14;45.10;;;19.40;;
37049;SDS011;22958;51.232;6.826;2023-02-15T09:54:01;38.72;;;18.75;;
37049;SDS011;22958;51.232;6.826;2023-02-15T09:56:39;41.97;;;20.13;;
37049;SDS011;22958;51.232;6.826;2023-02-15T09:59:30;49.75;;;18.73;;
37049;SDS011;22958;51.232;6.826;2023-02-15T10:05:08;41.40;;;17.27;;
37049;SDS011;22958;51.232;6.826;2023-02-15T10:11:17;39.92;;;17.63;;
37049;SDS011;22958;51.232;6.826;2023-02-15T10:22:21;39.05;;;17.83;;
37049;SDS011;22958;51.232;6.826;2023-02-15T10:25:07;36.40;;;17.13;;
37049;SDS011;22958;51.232;6.826;2023-02-15T10:27:47;38.22;;;17.38;;
37049;SDS011;22958;51.232;6.826;2023-02-15T10:35:37;35.10;;;15.95;;
37049;SDS011;22958;51.232;6.826;2023-02-15T10:38:34;37.40;;;17.10;;
37049;SDS011;22958;51.232;6.826;2023-02-15T10:50:01;35.65;;;15.75;;
37049;SDS011;22958;51.232;6.826;2023-02-15T11:03:32;32.05;;;14.98;;
37049;SDS011;22958;51.232;6.826;2023-02-15T11:08:51;35.92;;;16.65;;
37049;SDS011;22958;51.232;6.826;2023-02-15T11:11:21;36.55;;;15.43;;
37049;SDS011;22958;51.232;6.826;2023-02-15T11:13:53;33.70;;;15.68;;
37049;SDS011;22958;51.232;6.826;2023-02-15T11:16:29;39.67;;;15.35;;
37049;SDS011;22958;51.232;6.826;2023-02-15T11:19:04;30.10;;;14.57;;
37049;SDS011;22958;51.232;6.826;2023-02-15T11:21:40;31.23;;;15.45;;
37049;SDS011;22958;51.232;6.826;2023-02-15T11:24:09;31.90;;;14.35;;
37049;SDS011;22958;51.232;6.826;2023-02-15T11:26:38;37.25;;;15.98;;
37049;SDS011;22958;51.232;6.826;2023-02-15T11:29:13;34.45;;;15.85;;
37049;SDS011;22958;51.232;6.826;2023-02-15T11:31:55;34.47;;;15.13;;
37049;SDS011;22958;51.232;6.826;2023-02-15T11:36:58;34.30;;;14.90;;
37049;SDS011;22958;51.232;6.826;2023-02-15T11:39:26;29.75;;;14.05;;
37049;SDS011;22958;51.232;6.826;2023-02-15T11:41:55;30.88;;;15.90;;
37049;SDS011;22958;51.232;6.826;2023-02-15T11:44:27;35.15;;;14.55;;
37049;SDS011;22958;51.232;6.826;2023-02-15T11:46:58;32.45;;;14.95;;
37049;SDS011;22958;51.232;6.826;2023-02-15T11:49:30;29.90;;;14.75;;
37049;SDS011;22958;51.232;6.826;2023-02-15T11:51:58;29.15;;;14.38;;
37049;SDS011;22958;51.232;6.826;2023-02-15T11:54:28;32.70;;;15.15;;
37049;SDS011;22958;51.232;6.826;2023-02-15T12:00:06;31.35;;;15.77;;
37049;SDS011;22958;51.232;6.826;2023-02-15T12:03:18;32.97;;;15.55;;
37049;SDS011;22958;51.232;6.826;2023-02-15T12:05:57;33.20;;;15.13;;
37049;SDS011;22958;51.232;6.826;2023-02-15T12:08:39;28.08;;;14.30;;
37049;SDS011;22958;51.232;6.826;2023-02-15T12:11:15;30.83;;;15.32;;
37049;SDS011;22958;51.232;6.826;2023-02-15T12:16:21;34.38;;;14.50;;
37049;SDS011;22958;51.232;6.826;2023-02-15T12:18:47;29.63;;;13.57;;
37049;SDS011;22958;51.232;6.826;2023-02-15T12:21:23;29.85;;;14.93;;
37049;SDS011;22958;51.232;6.826;2023-02-15T12:24:02;29.95;;;15.05;;
37049;SDS011;22958;51.232;6.826;2023-02-15T12:26:34;33.67;;;14.52;;
37049;SDS011;22958;51.232;6.826;2023-02-15T12:29:06;32.45;;;14.50;;
37049;SDS011;22958;51.232;6.826;2023-02-15T12:31:40;27.98;;;13.35;;
37049;SDS011;22958;51.232;6.826;2023-02-15T12:34:11;27.65;;;14.35;;
37049;SDS011;22958;51.232;6.826;2023-02-15T12:36:45;28.52;;;13.35;;
37049;SDS011;22958;51.232;6.826;2023-02-15T12:41:56;23.35;;;13.95;;
37049;SDS011;22958;51.232;6.826;2023-02-15T12:44:26;26.13;;;12.73;;
37049;SDS011;22958;51.232;6.826;2023-02-15T12:46:58;25.52;;;14.35;;
37049;SDS011;22958;51.232;6.826;2023-02-15T12:49:25;27.40;;;12.82;;
37049;SDS011;22958;51.232;6.826;2023-02-15T12:52:00;25.40;;;13.68;;
37049;SDS011;22958;51.232;6.826;2023-02-15T12:57:23;26.33;;;13.60;;
37049;SDS011;22958;51.232;6.826;2023-02-15T12:59:57;30.63;;;13.48;;
37049;SDS011;22958;51.232;6.826;2023-02-15T13:02:51;26.23;;;13.38;;
37049;SDS011;22958;51.232;6.826;2023-02-15T13:07:49;28.50;;;13.00;;
37049;SDS011;22958;51.232;6.826;2023-02-15T13:10:28;27.77;;;13.93;;
37049;SDS011;22958;51.232;6.826;2023-02-15T13:12:57;26.27;;;12.57;;
37049;SDS011;22958;51.232;6.826;2023-02-15T13:15:24;28.52;;;13.70;;
37049;SDS011;22958;51.232;6.826;2023-02-15T13:18:13;30.23;;;13.75;;
37049;SDS011;22958;51.232;6.826;2023-02-15T13:20:41;26.27;;;14.32;;
37049;SDS011;22958;51.232;6.826;2023-02-15T13:23:22;26.15;;;14.35;;
37049;SDS011;22958;51.232;6.826;2023-02-15T13:25:54;26.13;;;13.68;;
37049;SDS011;22958;51.232;6.826;2023-02-15T13:28:22;31.33;;;14.23;;
37049;SDS011;22958;51.232;6.826;2023-02-15T13:30:56;29.92;;;14.10;;
37049;SDS011;22958;51.232;6.826;2023-02-15T13:33:24;29.67;;;13.27;;
37049;SDS011;22958;51.232;6.826;2023-02-15T13:36:10;24.42;;;12.93;;
37049;SDS011;22958;51.232;6.826;2023-02-15T13:52:56;27.45;;;13.25;;
37049;SDS011;22958;51.232;6.826;2023-02-15T13:55:55;27.27;;;13.50;;
37049;SDS011;22958;51.232;6.826;2023-02-15T14:06:42;28.23;;;12.68;;
37049;SDS011;22958;51.232;6.826;2023-02-15T14:12:24;23.50;;;11.75;;
37049;SDS011;22958;51.232;6.826;2023-02-15T14:21:03;23.00;;;12.65;;
37049;SDS011;22958;51.232;6.826;2023-02-15T14:26:51;28.58;;;13.80;;
37049;SDS011;22958;51.232;6.826;2023-02-15T14:31:50;29.13;;;13.40;;
37049;SDS011;22958;51.232;6.826;2023-02-15T14:36:51;28.42;;;12.10;;
37049;SDS011;22958;51.232;6.826;2023-02-15T14:39:22;32.45;;;12.45;;
37049;SDS011;22958;51.232;6.826;2023-02-15T14:42:26;32.97;;;14.15;;
37049;SDS011;22958;51.232;6.826;2023-02-15T14:45:05;34.30;;;13.25;;
37049;SDS011;22958;51.232;6.826;2023-02-15T14:47:48;26.63;;;12.73;;
37049;SDS011;22958;51.232;6.826;2023-02-15T14:53:16;30.35;;;12.93;;
37049;SDS011;22958;51.232;6.826;2023-02-15T14:59:28;30.38;;;13.15;;
37049;SDS011;22958;51.232;6.826;2023-02-15T15:04:35;28.70;;;12.63;;
37049;SDS011;22958;51.232;6.826;2023-02-15T15:09:39;33.53;;;13.98;;
37049;SDS011;22958;51.232;6.826;2023-02-15T15:12:13;35.45;;;13.10;;
37049;SDS011;22958;51.232;6.826;2023-02-15T15:14:43;30.55;;;13.32;;
37049;SDS011;22958;51.232;6.826;2023-02-15T15:20:00;29.05;;;12.75;;
37049;SDS011;22958;51.232;6.826;2023-02-15T15:22:33;27.38;;;13.20;;
37049;SDS011;22958;51.232;6.826;2023-02-15T15:27:52;35.92;;;13.45;;
37049;SDS011;22958;51.232;6.826;2023-02-15T15:44:08;35.47;;;13.73;;
37049;SDS011;22958;51.232;6.826;2023-02-15T15:49:34;38.90;;;15.43;;
37049;SDS011;22958;51.232;6.826;2023-02-15T15:52:02;35.55;;;15.02;;
37049;SDS011;22958;51.232;6.826;2023-02-15T15:54:38;35.20;;;15.07;;
37049;SDS011;22958;51.232;6.826;2023-02-15T15:57:05;35.10;;;15.70;;
37049;SDS011;22958;51.232;6.826;2023-02-15T15:59:43;42.00;;;17.20;;
37049;SDS011;22958;51.232;6.826;2023-02-15T16:02:14;37.70;;;15.98;;
37049;SDS011;22958;51.232;6.826;2023-02-15T16:04:41;36.42;;;16.00;;
37049;SDS011;22958;51.232;6.826;2023-02-15T16:07:19;61.47;;;21.77;;
37049;SDS011;22958;51.232;6.826;2023-02-15T16:09:58;63.92;;;22.70;;
37049;SDS011;22958;51.232;6.826;2023-02-15T16:12:29;47.95;;;19.08;;
37049;SDS011;22958;51.232;6.826;2023-02-15T16:14:57;46.63;;;17.88;;
37049;SDS011;22958;51.232;6.826;2023-02-15T16:17:26;31.00;;;14.80;;
37049;SDS011;22958;51.232;6.826;2023-02-15T16:20:05;31.70;;;14.70;;
37049;SDS011;22958;51.232;6.826;2023-02-15T16:28:22;30.08;;;13.95;;
37049;SDS011;22958;51.232;6.826;2023-02-15T16:30:55;28.77;;;13.90;;
37049;SDS011;22958;51.232;6.826;2023-02-15T16:33:44;31.15;;;14.40;;
37049;SDS011;22958;51.232;6.826;2023-02-15T16:36:11;28.88;;;14.20;;
37049;SDS011;22958;51.232;6.826;2023-02-15T16:41:13;32.63;;;14.30;;
37049;SDS011;22958;51.232;6.826;2023-02-15T16:43:42;28.65;;;14.20;;
37049;SDS011;22958;51.232;6.826;2023-02-15T16:46:11;29.65;;;14.73;;
37049;SDS011;22958;51.232;6.826;2023-02-15T16:48:41;33.10;;;15.55;;
37049;SDS011;22958;51.232;6.826;2023-02-15T16:51:10;31.75;;;14.35;;
37049;SDS011;22958;51.232;6.826;2023-02-15T16:53:46;35.33;;;14.98;;
37049;SDS011;22958;51.232;6.826;2023-02-15T16:56:15;31.75;;;15.23;;
37049;SDS011;22958;51.232;6.826;2023-02-15T16:58:49;30.15;;;13.82;;
37049;SDS011;22958;51.232;6.826;2023-02-15T17:01:17;33.30;;;14.80;;
37049;SDS011;22958;51.232;6.826;2023-02-15T17:03:48;36.45;;;14.82;;
37049;SDS011;22958;51.232;6.826;2023-02-15T17:08:51;37.80;;;16.42;;
37049;SDS011;22958;51.232;6.826;2023-02-15T17:11:18;39.30;;;15.25;;
37049;SDS011;22958;51.232;6.826;2023-02-15T17:16:35;38.65;;;14.50;;
37049;SDS011;22958;51.232;6.826;2023-02-15T17:19:13;31.75;;;14.45;;
37049;SDS011;22958;51.232;6.826;2023-02-15T17:21:58;43.85;;;16.23;;
37049;SDS011;22958;51.232;6.826;2023-02-15T17:27:27;35.50;;;15.23;;
37049;SDS011;22958;51.232;6.826;2023-02-15T17:29:56;34.50;;;16.08;;
37049;SDS011;22958;51.232;6.826;2023-02-15T17:32:27;37.13;;;15.52;;
37049;SDS011;22958;51.232;6.826;2023-02-15T17:34:59;34.70;;;15.15;;
37049;SDS011;22958;51.232;6.826;2023-02-15T17:40:07;35.75;;;15.88;;
37049;SDS011;22958;51.232;6.826;2023-02-15T17:42:44;42.92;;;17.60;;
37049;SDS011;22958;51.232;6.826;2023-02-15T17:45:10;36.47;;;16.53;;
37049;SDS011;22958;51.232;6.826;2023-02-15T17:47:35;37.90;;;17.83;;
37049;SDS011;22958;51.232;6.826;2023-02-15T17:50:02;39.33;;;17.63;;
37049;SDS011;22958;51.232;6.826;2023-02-15T17:52:29;40.53;;;16.95;;
37049;SDS011;22958;51.232;6.826;2023-02-15T17:54:55;31.70;;;16.02;;
37049;SDS011;22958;51.232;6.826;2023-02-15T17:57:39;37.35;;;16.02;;
37049;SDS011;22958;51.232;6.826;2023-02-15T18:00:05;36.97;;;15.90;;
37049;SDS011;22958;51.232;6.826;2023-02-15T18:02:50;33.40;;;16.50;;
37049;SDS011;22958;51.232;6.826;2023-02-15T18:05:34;37.63;;;15.70;;
37049;SDS011;22958;51.232;6.826;2023-02-15T18:08:18;35.85;;;16.40;;